Time;durP1;ratioP1;P1;durP2;ratioP2;P2;SDS_P1;SDS_P2;PMS_P1;PMS_P2;Temp;Humidity;BMP_temperature;BMP_pressure;BME280_temperature;BME280_humidity;BME280_pressure;Samples;Min_cycle;Max_cycle;Signal;HPM_P1;HPM_P2
2022/11/02 00:00:55;;;;;;;45.97;23.42;;;;;;;14.02;100.00;99075.50;4301069;33;20128;-73
2022/11/02 00:03:30;;;;;;;41.78;24.20;;;;;;;14.22;100.00;99079.28;4295791;33;20422;-73
2022/11/02 00:05:56;;;;;;;41.33;23.80;;;;;;;14.14;100.00;99067.09;4259956;33;20049;-74
2022/11/02 00:08:29;;;;;;;45.17;24.35;;;;;;;14.08;100.00;99069.00;4260523;33;20042;-73
2022/11/02 00:10:56;;;;;;;43.92;23.35;;;;;;;14.34;100.00;99104.16;4261781;33;20042;-73
2022/11/02 00:13:22;;;;;;;48.90;25.58;;;;;;;14.11;100.00;99068.44;4260563;33;20524;-73
2022/11/02 00:15:48;;;;;;;50.30;25.30;;;;;;;14.20;100.00;99108.50;4257415;33;20232;-73
2022/11/02 00:18:15;;;;;;;51.63;24.87;;;;;;;14.06;100.00;99064.94;4261154;33;20404;-73
2022/11/02 00:20:42;;;;;;;54.80;25.08;;;;;;;14.27;100.00;99098.22;4265832;33;20126;-73
2022/11/02 00:23:15;;;;;;;45.92;24.80;;;;;;;14.20;100.00;99109.34;4256475;33;20077;-72
2022/11/02 00:25:46;;;;;;;47.67;23.35;;;;;;;14.01;100.00;99079.28;4257583;33;20077;-73
2022/11/02 00:28:13;;;;;;;54.88;24.45;;;;;;;13.96;100.00;99071.97;4253749;33;21100;-73
2022/11/02 00:30:40;;;;;;;49.97;24.05;;;;;;;13.95;100.00;99119.06;4280765;33;20147;-74
2022/11/02 00:33:07;;;;;;;45.58;24.30;;;;;;;14.05;100.00;99085.78;4293436;33;20036;-74
2022/11/02 00:35:35;;;;;;;41.75;22.80;;;;;;;13.58;100.00;99049.78;4306315;33;20048;-74
2022/11/02 00:38:01;;;;;;;40.80;22.30;;;;;;;13.95;100.00;99120.97;4281592;33;20186;-73
2022/11/02 00:40:28;;;;;;;48.10;24.00;;;;;;;14.14;100.00;99121.25;4281337;33;20055;-73
2022/11/02 00:42:54;;;;;;;49.78;26.02;;;;;;;14.33;100.00;99129.66;4281583;33;20157;-74
2022/11/02 00:45:21;;;;;;;57.65;26.85;;;;;;;14.36;100.00;99123.69;4280855;33;20058;-74
2022/11/02 00:47:49;;;;;;;50.00;23.58;;;;;;;14.18;100.00;99087.13;4277936;33;20068;-75
2022/11/02 00:50:16;;;;;;;46.25;24.75;;;;;;;14.09;100.00;99132.91;4258800;33;20449;-74
2022/11/02 00:52:42;;;;;;;46.05;24.12;;;;;;;13.92;100.00;99124.22;4253241;33;20081;-75
2022/11/02 00:55:10;;;;;;;48.70;22.75;;;;;;;13.98;100.00;99128.56;4252553;33;20402;-74
2022/11/02 00:57:39;;;;;;;46.90;23.02;;;;;;;14.03;100.00;99125.84;4250075;33;20023;-75
2022/11/02 01:00:11;;;;;;;46.28;22.15;;;;;;;13.81;100.00;99142.34;4237853;33;20428;-73
2022/11/02 01:02:38;;;;;;;45.90;24.30;;;;;;;13.61;100.00;99129.59;4245769;33;20074;-74
2022/11/02 01:05:05;;;;;;;55.33;25.05;;;;;;;13.70;100.00;99100.91;4243142;33;20124;-73
2022/11/02 01:07:32;;;;;;;43.78;22.75;;;;;;;13.71;100.00;99091.72;4238130;33;20100;-73
2022/11/02 01:09:58;;;;;;;41.45;21.75;;;;;;;13.60;100.00;99099.00;4249259;33;20050;-73
2022/11/02 01:12:25;;;;;;;48.10;22.70;;;;;;;13.80;100.00;99138.81;4252020;33;20116;-73
2022/11/02 01:14:51;;;;;;;46.85;23.27;;;;;;;13.87;100.00;99138.56;4250639;33;20425;-74
2022/11/02 01:17:18;;;;;;;40.83;22.92;;;;;;;14.05;100.00;99133.69;4248821;33;20063;-72
2022/11/02 01:19:45;;;;;;;39.30;20.77;;;;;;;13.84;100.00;99132.87;4251724;33;20232;-73
2022/11/02 01:22:11;;;;;;;44.65;22.20;;;;;;;13.69;100.00;99099.31;4263805;33;20399;-73
2022/11/02 01:24:38;;;;;;;44.72;23.58;;;;;;;13.68;100.00;99094.16;4265490;33;20389;-73
2022/11/02 01:27:11;;;;;;;44.95;23.15;;;;;;;13.66;100.00;99080.91;4262377;33;20056;-73
2022/11/02 01:29:37;;;;;;;40.50;22.40;;;;;;;13.83;100.00;99104.19;4264845;33;20859;-73
2022/11/02 01:32:04;;;;;;;52.35;23.90;;;;;;;13.66;100.00;99129.59;4284143;33;20028;-73
2022/11/02 01:34:30;;;;;;;43.38;21.67;;;;;;;13.53;100.00;99101.16;4292684;33;20029;-73
2022/11/02 01:36:57;;;;;;;45.72;21.95;;;;;;;13.85;100.00;99139.91;4293851;33;20169;-72
2022/11/02 01:39:23;;;;;;;48.53;23.75;;;;;;;13.26;100.00;99109.44;4290690;33;20176;-73
2022/11/02 01:41:54;;;;;;;38.30;23.05;;;;;;;13.51;100.00;99097.09;4289731;33;20061;-73
2022/11/02 01:44:32;;;;;;;46.80;23.70;;;;;;;13.54;100.00;99107.38;4292893;33;20037;-74
2022/11/02 01:47:31;;;;;;;39.13;23.70;;;;;;;13.48;100.00;99146.31;4291473;33;20041;-73
2022/11/02 01:50:04;;;;;;;38.58;23.65;;;;;;;13.90;100.00;99142.63;4292899;33;20052;-74
2022/11/02 01:52:35;;;;;;;39.97;22.37;;;;;;;13.92;100.00;99135.06;4293066;33;20029;-74
2022/11/02 01:55:21;;;;;;;48.40;24.20;;;;;;;13.81;100.00;99143.12;4292852;33;20045;-74
2022/11/02 01:58:10;;;;;;;37.28;22.35;;;;;;;13.99;100.00;99139.13;4293227;33;20029;-74
2022/11/02 02:00:38;;;;;;;46.60;21.95;;;;;;;14.17;100.00;99140.47;4304069;33;20041;-74
2022/11/02 02:03:07;;;;;;;51.17;23.70;;;;;;;13.80;100.00;99106.34;4308999;33;20211;-73
2022/11/02 02:05:41;;;;;;;37.80;22.08;;;;;;;13.78;100.00;99108.50;4307557;33;20033;-73
2022/11/02 02:08:11;;;;;;;43.65;22.90;;;;;;;13.90;100.00;99142.63;4307285;33;20046;-74
2022/11/02 02:10:38;;;;;;;52.62;23.65;;;;;;;13.84;100.00;99103.91;4310534;33;20044;-74
2022/11/02 02:13:06;;;;;;;45.50;23.48;;;;;;;13.85;100.00;99102.84;4310454;33;20074;-74
2022/11/02 02:15:43;;;;;;;48.60;24.52;;;;;;;13.53;100.00;99097.62;4309304;33;20379;-72
2022/11/02 02:18:19;;;;;;;41.65;22.83;;;;;;;13.84;100.00;99111.22;4307433;33;20040;-73
2022/11/02 02:21:11;;;;;;;39.13;21.90;;;;;;;13.77;100.00;99112.28;4310493;33;20036;-73
2022/11/02 02:23:52;;;;;;;42.42;24.45;;;;;;;13.95;100.00;99150.75;4305161;33;20345;-73
2022/11/02 02:26:56;;;;;;;41.78;21.58;;;;;;;14.06;100.00;99151.59;4303921;33;20037;-73
2022/11/02 02:29:34;;;;;;;44.33;20.50;;;;;;;13.92;100.00;99140.47;4301112;33;20085;-73
2022/11/02 02:32:12;;;;;;;48.35;22.13;;;;;;;14.02;100.00;99140.47;4307726;33;20067;-74
2022/11/02 02:34:52;;;;;;;38.67;21.67;;;;;;;13.80;100.00;99128.00;4307027;33;20063;-74
2022/11/02 02:37:46;;;;;;;47.78;20.12;;;;;;;13.91;100.00;99100.94;4308410;33;20037;-73
2022/11/02 02:40:17;;;;;;;41.75;20.12;;;;;;;14.09;100.00;99140.22;4285989;33;20613;-74
2022/11/02 02:42:52;;;;;;;39.13;20.07;;;;;;;14.00;100.00;99099.31;4309472;33;20353;-73
2022/11/02 02:45:36;;;;;;;37.35;19.85;;;;;;;14.12;100.00;99134.22;4307821;33;20045;-73
2022/11/02 02:48:04;;;;;;;37.95;17.50;;;;;;;14.08;100.00;99133.97;4308302;33;20036;-73
2022/11/02 02:50:36;;;;;;;36.13;17.50;;;;;;;13.77;100.00;99106.09;4311027;33;20053;-73
2022/11/02 02:53:05;;;;;;;35.63;18.90;;;;;;;13.83;100.00;99106.88;4311473;33;20025;-73
2022/11/02 02:55:38;;;;;;;34.83;18.15;;;;;;;13.85;100.00;99142.59;4307533;33;20051;-74
2022/11/02 02:58:09;;;;;;;37.63;19.70;;;;;;;14.17;100.00;99143.19;4308499;33;20054;-73
2022/11/02 03:00:36;;;;;;;34.10;17.53;;;;;;;13.75;100.00;99152.34;4318203;33;20041;-73
2022/11/02 03:03:04;;;;;;;27.87;17.33;;;;;;;13.65;100.00;99136.06;4318220;33;20324;-72
2022/11/02 03:05:36;;;;;;;37.25;18.85;;;;;;;14.02;100.00;99166.72;4320071;33;20071;-72
2022/11/02 03:08:11;;;;;;;35.05;17.52;;;;;;;13.59;100.00;99153.38;4319286;33;20057;-74
2022/11/02 03:10:48;;;;;;;31.58;19.40;;;;;;;13.85;100.00;99169.66;4317183;33;20058;-72
2022/11/02 03:13:28;;;;;;;33.33;18.95;;;;;;;14.21;100.00;99161.59;4318393;33;20071;-73
2022/11/02 03:16:02;;;;;;;36.75;18.50;;;;;;;14.01;100.00;99155.09;4318391;33;20440;-72
2022/11/02 03:19:11;;;;;;;34.35;17.52;;;;;;;14.05;100.00;99167.00;4318974;33;20082;-73
2022/11/02 03:21:42;;;;;;;32.28;17.05;;;;;;;14.22;100.00;99176.78;4318985;33;20095;-73
2022/11/02 03:24:41;;;;;;;33.53;17.73;;;;;;;14.14;100.00;99176.22;4318724;33;20486;-73
2022/11/02 03:27:24;;;;;;;33.72;16.77;;;;;;;14.02;100.00;99181.06;4317320;33;20080;-73
2022/11/02 03:30:03;;;;;;;28.73;15.18;;;;;;;14.29;100.00;99177.31;4315754;33;20074;-73
2022/11/02 03:32:43;;;;;;;37.05;17.75;;;;;;;13.68;100.00;99149.06;4315666;33;20062;-72
2022/11/02 03:35:18;;;;;;;31.25;16.08;;;;;;;13.99;100.00;99146.41;4317108;33;20070;-73
2022/11/02 03:37:51;;;;;;;42.80;16.92;;;;;;;13.96;100.00;99125.28;4320940;33;20123;-72
2022/11/02 03:40:31;;;;;;;31.67;16.10;;;;;;;14.21;100.00;99175.12;4318590;33;20082;-72
2022/11/02 03:42:59;;;;;;;35.58;17.25;;;;;;;13.98;100.00;99112.31;4318110;33;20651;-73
2022/11/02 03:45:32;;;;;;;37.40;17.20;;;;;;;14.15;100.00;99139.09;4300272;33;20192;-73
2022/11/02 03:48:03;;;;;;;36.70;18.10;;;;;;;13.59;100.00;99110.09;4299081;33;20047;-73
2022/11/02 03:50:32;;;;;;;45.63;18.20;;;;;;;14.05;100.00;99180.53;4302314;33;20187;-73
2022/11/02 03:53:35;;;;;;;34.33;17.35;;;;;;;14.03;100.00;99182.69;4302421;33;20062;-73
2022/11/02 03:56:07;;;;;;;32.60;17.27;;;;;;;14.04;100.00;99165.38;4286273;33;20041;-73
2022/11/02 03:58:34;;;;;;;32.15;17.15;;;;;;;14.10;100.00;99179.72;4303524;33;20423;-73
2022/11/02 04:01:07;;;;;;;35.40;16.58;;;;;;;14.28;100.00;99186.50;4309490;33;20406;-74
2022/11/02 04:03:40;;;;;;;31.62;18.27;;;;;;;14.20;100.00;99196.00;4308227;33;20060;-74
2022/11/02 04:06:06;;;;;;;30.70;16.83;;;;;;;14.34;100.00;99180.00;4310308;33;20086;-73
2022/11/02 04:08:40;;;;;;;32.53;17.95;;;;;;;14.48;100.00;99185.72;4308407;33;20033;-74
2022/11/02 04:16:39;;;;;;;35.33;18.37;;;;;;;14.58;100.00;99184.87;4315993;33;20040;-74
2022/11/02 04:19:27;;;;;;;33.65;18.48;;;;;;;14.58;100.00;99187.59;4326088;33;20063;-74
2022/11/02 04:27:28;;;;;;;44.05;20.92;;;;;;;14.21;100.00;99196.81;4326168;33;20092;-73
2022/11/02 04:29:56;;;;;;;41.10;20.40;;;;;;;14.39;100.00;99182.75;4324786;33;20049;-73
2022/11/02 04:35:09;;;;;;;35.55;17.50;;;;;;;14.31;100.00;99164.28;4325759;33;20468;-74
2022/11/02 04:40:23;;;;;;;38.88;19.52;;;;;;;14.15;100.00;99177.03;4328645;33;20058;-74
2022/11/02 04:42:50;;;;;;;37.70;20.45;;;;;;;14.25;100.00;99162.66;4326044;33;20036;-74
2022/11/02 04:45:17;;;;;;;34.28;19.20;;;;;;;14.48;100.00;99194.63;4324522;33;20048;-73
2022/11/02 04:47:43;;;;;;;39.17;19.58;;;;;;;13.86;100.00;99158.56;4324786;33;20062;-73
2022/11/02 04:50:10;;;;;;;35.30;20.62;;;;;;;14.02;100.00;99164.81;4327998;33;20056;-75
2022/11/02 04:52:36;;;;;;;42.08;20.80;;;;;;;14.08;100.00;99166.47;4331181;33;20066;-73
2022/11/02 04:55:04;;;;;;;34.33;20.10;;;;;;;14.53;100.00;99194.66;4332447;33;20130;-73
2022/11/02 04:57:30;;;;;;;42.62;21.00;;;;;;;14.03;100.00;99158.34;4330163;33;20423;-73
2022/11/02 04:59:58;;;;;;;36.65;20.30;;;;;;;14.43;100.00;99188.41;4328509;33;21019;-74
2022/11/02 05:02:25;;;;;;;35.00;18.85;;;;;;;14.33;100.00;99187.34;4328935;33;20117;-73
2022/11/02 05:04:51;;;;;;;35.50;19.15;;;;;;;14.50;100.00;99194.38;4331025;33;20098;-74
2022/11/02 05:07:18;;;;;;;29.23;17.23;;;;;;;14.25;100.00;99184.34;4327778;33;20079;-73
2022/11/02 05:09:44;;;;;;;31.90;17.80;;;;;;;13.95;100.00;99178.63;4328919;33;20147;-74
2022/11/02 05:12:11;;;;;;;40.25;18.17;;;;;;;13.98;100.00;99169.16;4331813;33;20111;-73
2022/11/02 05:14:39;;;;;;;30.35;16.23;;;;;;;14.07;100.00;99202.75;4325113;33;20069;-73
2022/11/02 05:17:06;;;;;;;27.33;15.57;;;;;;;13.70;100.00;99171.25;4325550;33;20048;-73
2022/11/02 05:19:33;;;;;;;35.20;18.30;;;;;;;13.80;100.00;99211.06;4311879;33;20059;-73
2022/11/02 05:21:59;;;;;;;35.63;16.42;;;;;;;14.04;100.00;99211.41;4326102;33;20032;-73
2022/11/02 05:24:27;;;;;;;25.10;14.23;;;;;;;14.23;100.00;99210.88;4272706;33;20029;-72
2022/11/02 05:26:53;;;;;;;25.05;15.02;;;;;;;13.58;100.00;99214.00;4270851;33;20096;-72
2022/11/02 05:29:20;;;;;;;29.73;15.82;;;;;;;13.55;100.00;99182.06;4271446;33;20398;-73
2022/11/02 05:31:46;;;;;;;28.80;17.60;;;;;;;13.78;100.00;99205.91;4275889;33;20157;-73
2022/11/02 05:34:13;;;;;;;27.95;15.05;;;;;;;14.17;100.00;99218.19;4279896;33;20407;-73
2022/11/02 05:36:39;;;;;;;30.60;14.95;;;;;;;13.70;100.00;99197.50;4276693;33;20042;-73
2022/11/02 05:39:06;;;;;;;29.50;16.35;;;;;;;13.74;100.00;99222.97;4272568;33;20037;-73
2022/11/02 05:41:33;;;;;;;26.48;16.50;;;;;;;13.62;100.00;99217.78;4272149;33;20018;-74
2022/11/02 05:44:06;;;;;;;30.33;17.20;;;;;;;14.05;100.00;99223.84;4272837;33;20101;-73
2022/11/02 05:46:33;;;;;;;29.17;16.80;;;;;;;13.85;100.00;99231.91;4273648;33;20040;-73
2022/11/02 05:49:00;;;;;;;24.70;16.12;;;;;;;14.02;100.00;99194.59;4272636;33;20064;-72
2022/11/02 05:51:26;;;;;;;35.63;17.98;;;;;;;13.69;100.00;99241.88;4276634;33;20049;-72
2022/11/02 05:53:53;;;;;;;34.33;18.83;;;;;;;13.83;100.00;99215.94;4279219;33;20047;-73
2022/11/02 05:56:19;;;;;;;32.38;18.52;;;;;;;13.86;100.00;99228.12;4316768;33;20032;-73
2022/11/02 05:58:45;;;;;;;24.98;16.70;;;;;;;13.60;100.00;99201.00;4320076;33;20099;-73
2022/11/02 06:01:12;;;;;;;37.47;17.80;;;;;;;13.87;100.00;99240.59;4322390;33;20059;-72
2022/11/02 06:03:39;;;;;;;42.67;19.55;;;;;;;13.64;100.00;99210.19;4321823;33;20044;-73
2022/11/02 06:06:09;;;;;;;36.53;18.95;;;;;;;13.12;100.00;99195.63;4321785;33;20083;-72
2022/11/02 06:08:37;;;;;;;39.13;18.10;;;;;;;13.67;100.00;99252.97;4319722;33;20028;-73
2022/11/02 06:11:10;;;;;;;46.72;18.20;;;;;;;13.62;100.00;99247.53;4321938;33;20379;-74
2022/11/02 06:13:40;;;;;;;35.42;18.80;;;;;;;13.76;100.00;99251.38;4307553;33;20098;-73
2022/11/02 06:16:09;;;;;;;48.22;18.35;;;;;;;13.87;100.00;99254.13;4322595;33;20334;-73
2022/11/02 06:18:37;;;;;;;48.58;18.58;;;;;;;13.60;100.00;99244.28;4320810;33;20045;-73
2022/11/02 06:21:04;;;;;;;41.80;19.60;;;;;;;13.28;100.00;99220.84;4325111;33;20036;-73
2022/11/02 06:23:31;;;;;;;47.95;19.05;;;;;;;13.39;100.00;99236.06;4323809;33;20044;-73
2022/11/02 06:25:59;;;;;;;53.42;21.48;;;;;;;13.35;100.00;99239.56;4323793;33;20082;-74
2022/11/02 06:28:25;;;;;;;56.37;20.37;;;;;;;13.76;100.00;99254.09;4325418;33;20372;-75
2022/11/02 06:30:53;;;;;;;40.95;18.10;;;;;;;13.86;100.00;99249.78;4324749;33;20066;-74
2022/11/02 06:33:20;;;;;;;54.13;21.23;;;;;;;13.67;100.00;99187.22;4323274;33;20062;-74
2022/11/02 06:35:49;;;;;;;50.03;19.45;;;;;;;14.24;100.00;99255.84;4322224;33;20041;-73
2022/11/02 06:38:16;;;;;;;58.47;21.17;;;;;;;13.80;100.00;99259.78;4323131;33;20133;-73
2022/11/02 06:40:51;;;;;;;65.62;21.67;;;;;;;14.09;100.00;99260.16;4325186;33;20045;-75
2022/11/02 06:43:18;;;;;;;54.60;21.10;;;;;;;13.73;100.00;99262.72;4323092;33;20416;-74
2022/11/02 06:45:45;;;;;;;50.28;20.95;;;;;;;13.84;100.00;99230.31;4323152;33;20062;-74
2022/11/02 06:48:12;;;;;;;54.53;20.12;;;;;;;13.80;100.00;99268.72;4323890;33;20086;-76
2022/11/02 06:50:38;;;;;;;67.78;20.90;;;;;;;13.88;100.00;99231.37;4323258;33;20052;-76
2022/11/02 06:53:05;;;;;;;56.88;21.95;;;;;;;13.73;100.00;99268.13;4322941;33;20064;-75
2022/11/02 06:55:31;;;;;;;68.62;19.58;;;;;;;13.94;100.00;99265.50;4323010;33;20131;-74
2022/11/02 06:57:57;;;;;;;53.70;21.02;;;;;;;13.48;100.00;99232.88;4320706;33;20078;-75
2022/11/02 07:00:24;;;;;;;57.10;21.42;;;;;;;13.71;100.00;99224.31;4322442;33;20067;-75
2022/11/02 07:03:08;;;;;;;51.15;19.58;;;;;;;13.64;100.00;99237.25;4323443;33;20108;-76
2022/11/02 07:05:35;;;;;;;50.80;21.12;;;;;;;13.25;100.00;99240.31;4321766;33;20285;-75
2022/11/02 07:08:02;;;;;;;57.60;20.92;;;;;;;13.60;100.00;99271.34;4322581;33;20060;-73
2022/11/02 07:10:35;;;;;;;51.78;20.35;;;;;;;13.40;100.00;99269.34;4324330;33;20437;-73
2022/11/02 07:13:02;;;;;;;58.25;20.92;;;;;;;13.68;100.00;99262.72;4305205;33;20058;-74
2022/11/02 07:15:28;;;;;;;53.92;20.98;;;;;;;13.37;100.00;99216.59;4305098;33;20372;-73
2022/11/02 07:17:55;;;;;;;43.00;17.40;;;;;;;13.75;100.00;99266.00;4305955;33;20033;-73
2022/11/02 07:20:21;;;;;;;44.72;19.45;;;;;;;13.27;100.00;99276.00;4307981;33;20063;-74
2022/11/02 07:22:56;;;;;;;45.53;19.23;;;;;;;13.38;100.00;99277.72;4308888;33;20045;-74
2022/11/02 07:25:24;;;;;;;36.45;17.17;;;;;;;13.52;100.00;99274.56;4293795;33;20079;-74
2022/11/02 07:27:51;;;;;;;37.10;18.58;;;;;;;13.64;100.00;99269.72;4293314;33;20101;-73
2022/11/02 07:30:17;;;;;;;36.47;17.45;;;;;;;13.74;100.00;99258.97;4295388;33;20055;-73
2022/11/02 07:32:45;;;;;;;43.92;16.73;;;;;;;13.70;100.00;99263.25;4295647;33;20360;-74
2022/11/02 07:35:13;;;;;;;32.35;17.92;;;;;;;13.49;100.00;99264.25;4294118;33;20111;-73
2022/11/02 07:37:40;;;;;;;42.40;18.35;;;;;;;13.64;100.00;99231.84;4289158;33;20081;-74
2022/11/02 07:40:09;;;;;;;46.78;17.87;;;;;;;13.33;100.00;99237.13;4294999;33;20132;-74
2022/11/02 07:42:42;;;;;;;37.90;18.62;;;;;;;13.34;100.00;99271.22;4296244;33;20040;-72
2022/11/02 07:45:09;;;;;;;43.63;18.83;;;;;;;13.34;100.00;99271.22;4308628;33;20170;-73
2022/11/02 07:47:45;;;;;;;46.35;17.60;;;;;;;13.53;100.00;99278.88;4286189;33;20084;-73
2022/11/02 07:50:13;;;;;;;41.33;18.35;;;;;;;13.81;100.00;99281.16;4294454;33;20080;-73
2022/11/02 07:52:53;;;;;;;43.38;19.08;;;;;;;13.91;100.00;99274.16;4291677;33;20044;-74
2022/11/02 07:55:23;;;;;;;43.75;18.30;;;;;;;13.89;100.00;99276.31;4291986;33;20059;-74
2022/11/02 07:58:00;;;;;;;46.00;19.60;;;;;;;14.07;100.00;99277.72;4318778;33;21011;-73
2022/11/02 08:00:36;;;;;;;42.00;18.10;;;;;;;13.59;100.00;99229.13;4317486;33;20693;-74
2022/11/02 08:03:04;;;;;;;41.72;19.73;;;;;;;13.86;100.00;99272.25;4319150;33;20397;-74
2022/11/02 08:05:33;;;;;;;38.03;18.55;;;;;;;14.09;100.00;99265.56;4324762;33;20086;-73
2022/11/02 08:08:02;;;;;;;41.37;18.65;;;;;;;14.00;100.00;99259.03;4323300;33;20044;-74
2022/11/02 08:10:30;;;;;;;35.17;17.62;;;;;;;13.95;100.00;99264.44;4308489;33;20496;-75
2022/11/02 08:12:56;;;;;;;39.28;19.35;;;;;;;13.96;100.00;99255.22;4304711;33;20443;-74
2022/11/02 08:15:23;;;;;;;33.85;17.83;;;;;;;14.20;100.00;99254.75;4309224;33;20049;-74
2022/11/02 08:18:05;;;;;;;31.77;17.83;;;;;;;14.30;100.00;99254.78;4308676;33;20055;-74
2022/11/02 08:20:33;;;;;;;34.25;17.17;;;;;;;13.87;100.00;99237.91;4307855;33;20085;-74
2022/11/02 08:23:00;;;;;;;35.08;16.02;;;;;;;14.12;100.00;99216.28;4306941;33;20057;-74
2022/11/02 08:25:27;;;;;;;32.85;17.00;;;;;;;14.37;100.00;99249.91;4308734;33;20497;-74
2022/11/02 08:27:58;;;;;;;29.05;16.08;;;;;;;14.27;100.00;99223.63;4309142;33;20051;-74
2022/11/02 08:30:28;;;;;;;32.35;15.98;;;;;;;14.19;100.00;99251.22;4308321;33;20352;-73
2022/11/02 08:33:02;;;;;;;38.63;18.40;;;;;;;13.78;100.00;99216.75;4278722;33;20033;-73
2022/11/02 08:35:28;;;;;;;33.17;17.15;;;;;;;13.84;100.00;99230.31;4279402;33;20045;-72
2022/11/02 08:37:56;;;;;;;32.25;17.33;;;;;;;13.96;100.00;99215.44;4279565;33;20061;-73
2022/11/02 08:40:22;;;;;;;27.85;15.68;;;;;;;14.09;100.00;99243.09;4280085;33;20034;-72
2022/11/02 08:42:59;;;;;;;31.02;15.65;;;;;;;14.20;100.00;99211.41;4288933;33;20073;-73
2022/11/02 08:45:26;;;;;;;31.45;16.20;;;;;;;14.10;100.00;99218.44;4293868;33;20071;-72
2022/11/02 08:47:53;;;;;;;25.83;14.70;;;;;;;13.58;100.00;99222.09;4294695;33;20090;-73
2022/11/02 08:50:20;;;;;;;29.95;15.35;;;;;;;13.41;100.00;99277.19;4293998;33;20466;-73
2022/11/02 08:52:47;;;;;;;34.55;16.85;;;;;;;13.46;100.00;99268.28;4292547;33;20046;-73
2022/11/02 08:55:14;;;;;;;30.48;16.42;;;;;;;14.02;100.00;99259.56;4295109;33;20058;-78
2022/11/02 08:57:59;;;;;;;30.48;15.48;;;;;;;14.04;100.00;99272.84;4295077;33;20067;-73
2022/11/02 09:00:28;;;;;;;29.67;16.90;;;;;;;13.90;100.00;99277.97;4305942;33;20084;-73
2022/11/02 09:03:09;;;;;;;29.95;16.83;;;;;;;14.09;100.00;99270.97;4309747;33;20044;-84
2022/11/02 09:05:38;;;;;;;27.52;16.40;;;;;;;13.79;100.00;99275.22;4323618;33;20080;-75
2022/11/02 09:08:07;;;;;;;26.25;15.75;;;;;;;13.82;100.00;99227.88;4304473;33;20066;-75
2022/11/02 09:10:35;;;;;;;29.90;15.02;;;;;;;13.63;100.00;99262.69;4306591;33;20097;-73
2022/11/02 09:13:04;;;;;;;27.40;15.57;;;;;;;13.27;100.00;99230.03;4307325;33;20066;-75
2022/11/02 09:15:33;;;;;;;36.70;17.52;;;;;;;13.34;100.00;99275.78;4308388;33;20473;-74
2022/11/02 09:18:00;;;;;;;30.25;16.15;;;;;;;13.14;100.00;99262.94;4307362;33;20389;-74
2022/11/02 09:20:27;;;;;;;37.92;17.87;;;;;;;13.42;100.00;99268.00;4307031;33;20106;-74
2022/11/02 09:22:53;;;;;;;32.75;14.73;;;;;;;13.60;100.00;99249.69;4308878;33;20077;-74
2022/11/02 09:25:20;;;;;;;25.90;14.85;;;;;;;13.58;100.00;99259.97;4307755;33;20047;-74
2022/11/02 09:27:51;;;;;;;30.12;16.25;;;;;;;13.26;100.00;99236.53;4306673;33;20100;-75
2022/11/02 09:30:18;;;;;;;29.85;16.62;;;;;;;13.35;100.00;99234.97;4305078;33;20037;-74
2022/11/02 09:32:51;;;;;;;26.58;15.68;;;;;;;12.98;100.00;99257.44;4307798;33;20052;-74
2022/11/02 09:35:18;;;;;;;27.90;17.40;;;;;;;13.19;100.00;99225.94;4305685;33;20037;-74
2022/11/02 09:37:44;;;;;;;25.35;14.63;;;;;;;13.07;100.00;99218.03;4307485;33;20175;-74
2022/11/02 09:40:19;;;;;;;26.08;15.95;;;;;;;13.07;100.00;99223.44;4318640;33;20398;-73
2022/11/02 09:42:54;;;;;;;30.08;14.82;;;;;;;13.53;100.00;99241.00;4330985;33;20090;-75
2022/11/02 09:45:21;;;;;;;25.37;14.87;;;;;;;13.31;100.00;99216.81;4334939;33;20119;-74
2022/11/02 09:48:00;;;;;;;25.00;13.93;;;;;;;13.56;100.00;99267.53;4337573;33;20039;-72
2022/11/02 09:50:51;;;;;;;25.10;14.55;;;;;;;13.72;100.00;99255.72;4336841;33;20037;-74
2022/11/02 09:53:25;;;;;;;25.62;14.82;;;;;;;13.24;100.00;99271.09;4335927;33;20070;-74
2022/11/02 09:55:55;;;;;;;25.50;15.48;;;;;;;13.37;100.00;99269.84;4329388;33;20041;-74
2022/11/02 09:58:38;;;;;;;23.33;14.25;;;;;;;13.36;100.00;99233.09;4310518;33;20049;-74
2022/11/02 10:01:16;;;;;;;;;;;;;;;13.44;100.00;99276.66;4309569;33;20197;-74
2022/11/02 10:04:01;;;;;;;25.90;14.27;;;;;;;13.15;100.00;99275.41;4318521;33;19943;-76
2022/11/02 10:06:29;;;;;;;29.58;15.05;;;;;;;13.74;100.00;99268.97;4325535;33;20062;-75
2022/11/02 10:09:21;;;;;;;28.77;16.60;;;;;;;13.21;100.00;99267.06;4323840;33;20070;-74
2022/11/02 10:12:15;;;;;;;29.92;16.12;;;;;;;13.44;100.00;99271.25;4326025;33;20056;-73
2022/11/02 10:15:04;;;;;;;28.35;14.77;;;;;;;13.29;100.00;99273.88;4323382;33;20036;-73
2022/11/02 10:17:35;;;;;;;23.60;13.95;;;;;;;13.64;100.00;99272.44;4324984;33;20453;-73
2022/11/02 10:20:14;;;;;;;34.00;14.60;;;;;;;13.68;100.00;99226.75;4324992;33;20828;-73
2022/11/02 10:22:41;;;;;;;27.15;13.82;;;;;;;13.65;100.00;99260.53;4323816;33;20070;-74
2022/11/02 10:25:13;;;;;;;27.00;13.52;;;;;;;13.51;100.00;99238.56;4324701;33;20062;-73
2022/11/02 10:27:42;;;;;;;27.13;13.88;;;;;;;13.46;100.00;99240.44;4323320;33;20037;-73
2022/11/02 10:30:14;;;;;;;19.98;11.90;;;;;;;13.74;100.00;99258.16;4324877;33;20938;-77
2022/11/02 10:32:44;;;;;;;21.67;13.10;;;;;;;13.68;100.00;99265.44;4323516;33;20394;-73
2022/11/02 10:35:28;;;;;;;33.25;10.90;;;;;;;13.56;100.00;99222.38;4321403;33;20053;-74
2022/11/02 10:38:24;;;;;;;20.50;9.27;;;;;;;14.33;100.00;99259.66;4321112;33;20033;-75
2022/11/02 10:41:09;;;;;;;22.50;10.30;;;;;;;14.03;100.00;99250.38;4314660;33;20048;-73
2022/11/02 10:43:38;;;;;;;20.77;10.40;;;;;;;13.89;100.00;99260.09;4306945;33;20371;-75
2022/11/02 10:46:16;;;;;;;19.12;7.90;;;;;;;14.19;100.00;99250.44;4322821;33;20074;-74
2022/11/02 10:48:52;;;;;;;14.90;8.18;;;;;;;13.77;100.00;99255.72;4316365;33;20041;-77
2022/11/02 10:51:20;;;;;;;19.58;9.45;;;;;;;13.71;100.00;99213.47;4321052;33;20082;-76
2022/11/02 10:53:52;;;;;;;23.17;9.35;;;;;;;14.31;100.00;99219.31;4322941;33;20068;-76
2022/11/02 10:56:37;;;;;;;11.95;7.65;;;;;;;14.46;100.00;99214.97;4321961;33;20032;-76
2022/11/02 10:59:13;;;;;;;14.68;7.80;;;;;;;15.51;100.00;99243.28;4325781;33;20032;-76
2022/11/02 11:01:46;;;;;;;9.68;5.57;;;;;;;15.20;100.00;99235.22;4328602;33;20056;-75
2022/11/02 11:04:24;;;;;;;15.43;5.85;;;;;;;15.77;100.00;99233.16;4314335;33;20044;-76
2022/11/02 11:06:53;;;;;;;10.25;6.35;;;;;;;16.52;100.00;99244.91;4311638;33;20070;-76
2022/11/02 11:09:53;;;;;;;14.00;5.45;;;;;;;16.89;100.00;99241.63;4310539;33;20037;-75
2022/11/02 11:12:28;;;;;;;11.45;5.37;;;;;;;16.75;100.00;99223.53;4258660;33;20049;-76
2022/11/02 11:14:56;;;;;;;10.52;4.90;;;;;;;16.35;100.00;99204.56;4288321;33;20052;-76
2022/11/02 11:17:28;;;;;;;19.67;5.10;;;;;;;16.69;100.00;99209.97;4294281;33;20063;-76
2022/11/02 11:19:56;;;;;;;10.48;4.60;;;;;;;16.87;100.00;99237.59;4284577;33;20042;-75
2022/11/02 11:22:36;;;;;;;10.35;4.80;;;;;;;16.06;100.00;99223.50;4307162;33;20115;-76
2022/11/02 11:25:11;;;;;;;13.43;5.93;;;;;;;17.07;100.00;99236.56;4306887;33;20078;-76
2022/11/02 11:27:47;;;;;;;11.77;5.18;;;;;;;16.98;100.00;99200.25;4307979;33;20179;-75
2022/11/02 11:30:26;;;;;;;11.40;5.05;;;;;;;17.04;100.00;99199.06;4308589;33;20028;-76
2022/11/02 11:32:54;;;;;;;6.95;3.92;;;;;;;16.68;100.00;99207.56;4308490;33;20514;-73
2022/11/02 11:35:22;;;;;;;8.07;4.40;;;;;;;15.96;100.00;99235.25;4308048;33;20059;-75
2022/11/02 11:37:53;;;;;;;12.68;4.47;;;;;;;16.16;100.00;99169.09;4295742;33;20067;-75
2022/11/02 11:40:21;;;;;;;8.40;5.30;;;;;;;16.75;100.00;99223.53;4295935;33;20037;-74
2022/11/02 11:42:51;;;;;;;12.50;4.68;;;;;;;16.52;100.00;99204.16;4297505;33;20057;-73
2022/11/02 11:45:26;;;;;;;11.43;5.43;;;;;;;16.44;100.00;99207.50;4309100;33;20070;-73